createdAt,value
2022-09-28T14:21:39.784Z,96863.59
2022-09-28T14:24:32.289Z,96858.28
2022-09-28T14:27:21.108Z,96852.06
2022-09-28T14:29:55.756Z,96847.91
2022-09-28T14:32:25.252Z,96847.09
2022-09-28T14:34:59.627Z,96862.09
2022-09-28T14:37:50.725Z,96858.91
2022-09-28T14:40:49.584Z,96850.41
2022-09-28T14:43:38.434Z,96867.53
2022-09-28T14:46:10.043Z,96870.66
2022-09-28T14:48:54.122Z,96882.81
2022-09-28T14:51:26.815Z,96873.16
2022-09-28T14:53:56.445Z,96874.31
2022-09-28T14:56:25.465Z,96878.81
2022-09-28T14:58:58.104Z,96872.31
2022-09-28T15:01:26.089Z,96878.00
2022-09-28T15:03:57.070Z,96884.63
2022-09-28T15:06:25.069Z,96886.28
2022-09-28T15:08:52.060Z,96883.94
2022-09-28T15:11:25.509Z,96886.59
2022-09-28T15:14:06.515Z,96888.09
2022-09-28T15:16:34.164Z,96884.75
2022-09-28T15:19:28.977Z,96886.78
2022-09-28T15:21:55.893Z,96887.75
2022-09-28T15:24:31.852Z,96888.06
2022-09-28T15:27:19.420Z,96883.25
2022-09-28T15:30:16.000Z,96883.56
2022-09-28T15:32:42.750Z,96871.38
2022-09-28T15:35:17.281Z,96872.56
2022-09-28T15:37:44.949Z,96872.03
2022-09-28T15:40:17.650Z,96868.53
2022-09-28T15:42:47.371Z,96874.00
2022-09-28T15:45:14.149Z,96863.53
2022-09-28T15:47:43.646Z,96866.53
2022-09-28T15:50:24.280Z,96864.00
2022-09-28T15:52:59.118Z,96873.16
2022-09-28T15:55:28.568Z,96868.84
2022-09-28T15:58:22.663Z,96871.81
2022-09-28T16:00:51.075Z,96871.31
2022-09-28T16:03:17.901Z,96876.00
2022-09-28T16:06:05.582Z,96868.34
2022-09-28T16:08:44.031Z,96876.81
2022-09-28T16:11:21.224Z,96871.53
2022-09-28T16:14:21.689Z,96866.38
2022-09-28T16:16:51.321Z,96871.06
2022-09-28T16:19:25.411Z,96871.94
2022-09-28T16:22:06.369Z,96868.19
2022-09-28T16:24:38.718Z,96880.31
2022-09-28T16:27:25.880Z,96883.41
2022-09-28T16:30:05.172Z,96874.88
2022-09-28T16:32:38.566Z,96863.19
2022-09-28T16:35:11.071Z,96871.00
2022-09-28T16:37:41.779Z,96853.81
2022-09-28T16:40:12.609Z,96862.97
2022-09-28T16:42:45.478Z,96852.63
2022-09-28T16:45:20.476Z,96855.78
2022-09-28T16:47:52.868Z,96862.41
2022-09-28T16:50:21.671Z,96862.22
2022-09-28T16:53:35.707Z,96866.84
2022-09-28T16:56:03.906Z,96864.00
2022-09-28T16:58:31.599Z,96863.16
2022-09-28T17:00:58.975Z,96846.66
2022-09-28T17:03:26.919Z,96862.31
2022-09-28T17:05:55.192Z,96858.47
2022-09-28T17:08:24.018Z,96869.09
2022-09-28T17:11:13.927Z,96865.94
2022-09-28T17:13:40.951Z,96866.56
2022-09-28T17:16:13.429Z,96865.34
2022-09-28T17:18:40.776Z,96869.13
2022-09-28T17:21:12.709Z,96861.50
2022-09-28T17:23:39.495Z,96865.28
2022-09-28T17:26:06.595Z,96857.63
2022-09-28T17:28:34.122Z,96858.41
2022-09-28T17:31:01.727Z,96858.34
2022-09-28T17:33:29.298Z,96848.22
2022-09-28T17:36:05.019Z,96852.97
2022-09-28T17:38:32.425Z,96847.00
2022-09-28T17:40:59.145Z,96852.31
2022-09-28T17:43:25.942Z,96850.63
2022-09-28T17:45:52.871Z,96848.81
2022-09-28T17:48:24.262Z,96853.28
2022-09-28T17:50:51.242Z,96838.50
2022-09-28T17:53:17.922Z,96849.50
2022-09-28T17:55:44.600Z,96846.53
2022-09-28T17:58:20.048Z,96849.19
2022-09-28T18:00:49.701Z,96852.22
2022-09-28T18:03:22.333Z,96839.41
2022-09-28T18:05:53.649Z,96844.94
2022-09-28T18:08:21.242Z,96851.44
2022-09-28T18:10:48.257Z,96851.63
2022-09-28T18:13:15.222Z,96852.44
2022-09-28T18:15:42.785Z,96855.09
2022-09-28T18:18:10.053Z,96861.38
2022-09-28T18:20:37.820Z,96860.41
2022-09-28T18:23:04.992Z,96871.03
2022-09-28T18:25:32.206Z,96858.72
2022-09-28T18:28:00.129Z,96865.03
2022-09-28T18:30:28.002Z,96865.03
2022-09-28T18:32:54.790Z,96850.56
2022-09-28T18:35:23.244Z,96856.88
2022-09-28T18:37:50.444Z,96865.81
2022-09-28T18:40:20.966Z,96858.16
2022-09-28T18:42:50.947Z,96844.94
2022-09-28T18:45:19.142Z,96841.47
2022-09-28T18:47:46.456Z,96832.97
2022-09-28T18:50:15.818Z,96848.59
2022-09-28T18:52:44.423Z,96824.53
2022-09-28T18:55:12.721Z,96844.28
2022-09-28T18:57:42.826Z,96838.50
2022-09-28T19:00:11.815Z,96851.47
2022-09-28T19:02:38.775Z,96848.81
2022-09-28T19:05:06.960Z,96837.66
2022-09-28T19:07:34.849Z,96847.47
2022-09-28T19:10:01.938Z,96847.09
2022-09-28T19:12:28.615Z,96842.09
2022-09-28T19:14:55.358Z,96833.06
2022-09-28T19:17:22.077Z,96818.56
2022-09-28T19:19:48.868Z,96818.09
2022-09-28T19:22:15.556Z,96822.34
2022-09-28T19:24:42.249Z,96825.84
2022-09-28T19:27:08.965Z,96815.31
2022-09-28T19:29:35.714Z,96828.19
2022-09-28T19:32:02.599Z,96827.19
2022-09-28T19:34:30.221Z,96824.53
2022-09-28T19:36:57.289Z,96825.28
2022-09-28T19:39:24.201Z,96824.94
2022-09-28T19:41:54.319Z,96836.09
2022-09-28T19:44:25.850Z,96836.63
2022-09-28T19:46:58.684Z,96844.44
2022-09-28T19:49:27.377Z,96845.25
2022-09-28T19:52:14.425Z,96842.78
2022-09-28T19:54:54.439Z,96850.25
2022-09-28T19:57:21.404Z,96843.59
2022-09-28T19:59:52.337Z,96838.06
2022-09-28T20:02:19.850Z,96838.91
2022-09-28T20:04:46.656Z,96835.88
2022-09-28T20:07:13.952Z,96831.69
2022-09-28T20:09:40.510Z,96817.91
2022-09-28T20:12:07.242Z,96819.63
2022-09-28T20:14:37.993Z,96827.06
2022-09-28T20:17:06.356Z,96814.41
2022-09-28T20:19:33.582Z,96821.06
2022-09-28T20:22:02.885Z,96818.59
2022-09-28T20:24:31.282Z,96815.44
2022-09-28T20:26:58.204Z,96824.94
2022-09-28T20:29:25.307Z,96830.94
2022-09-28T20:31:52.234Z,96832.75
2022-09-28T20:34:18.972Z,96840.63
2022-09-28T20:36:45.689Z,96833.81
2022-09-28T20:39:13.458Z,96840.94
2022-09-28T20:41:40.334Z,96827.13
2022-09-28T20:44:07.505Z,96828.50
2022-09-28T20:46:35.091Z,96834.63
2022-09-28T20:49:02.362Z,96827.69
2022-09-28T20:51:28.976Z,96832.44
2022-09-28T20:53:57.610Z,96843.53
2022-09-28T20:56:30.537Z,96833.56
2022-09-28T20:58:57.664Z,96835.09
2022-09-28T21:01:25.846Z,96844.56
2022-09-28T21:04:00.816Z,96844.44
2022-09-28T21:06:34.120Z,96843.75
2022-09-28T21:09:01.294Z,96842.78
2022-09-28T21:11:29.533Z,96838.28
2022-09-28T21:13:58.628Z,96829.13
2022-09-28T21:16:27.079Z,96837.47
2022-09-28T21:18:53.847Z,96842.09
2022-09-28T21:21:22.424Z,96840.13
2022-09-28T21:23:52.581Z,96824.78
2022-09-28T21:26:27.551Z,96833.94
2022-09-28T21:28:58.129Z,96828.81
2022-09-28T21:31:29.207Z,96824.78
2022-09-28T21:33:57.742Z,96831.09
2022-09-28T21:36:25.546Z,96827.44
2022-09-28T21:38:54.452Z,96828.25
2022-09-28T21:41:21.173Z,96829.25
2022-09-28T21:43:48.054Z,96809.34
2022-09-28T21:46:14.771Z,96816.31
2022-09-28T21:48:41.591Z,96805.81
2022-09-28T21:51:12.582Z,96810.31
2022-09-28T21:53:39.609Z,96818.44
2022-09-28T21:56:08.943Z,96815.72
2022-09-28T21:58:36.137Z,96817.81
2022-09-28T22:01:07.878Z,96812.66
2022-09-28T22:03:36.658Z,96819.09
2022-09-28T22:06:05.316Z,96808.63
2022-09-28T22:08:32.992Z,96807.28
2022-09-28T22:11:03.196Z,96814.09
2022-09-28T22:13:31.982Z,96812.59
2022-09-28T22:15:59.224Z,96819.16
2022-09-28T22:18:30.062Z,96823.09
2022-09-28T22:21:12.008Z,96816.13
2022-09-28T22:23:39.843Z,96813.94
2022-09-28T22:26:13.177Z,96815.19
2022-09-28T22:28:44.972Z,96814.50
2022-09-28T22:31:11.736Z,96798.13
2022-09-28T22:33:39.931Z,96821.63
2022-09-28T22:36:07.911Z,96795.88
2022-09-28T22:38:35.367Z,96812.13
2022-09-28T22:41:05.379Z,96829.16
2022-09-28T22:43:32.212Z,96845.06
2022-09-28T22:46:02.156Z,96828.97
2022-09-28T22:48:29.316Z,96828.03
2022-09-28T22:50:55.871Z,96829.94
2022-09-28T22:53:22.740Z,96843.84
2022-09-28T22:55:49.465Z,96842.06
2022-09-28T22:58:16.515Z,96830.91
2022-09-28T23:00:44.558Z,96834.38
2022-09-28T23:03:11.375Z,96828.94
2022-09-28T23:05:38.121Z,96821.41
2022-09-28T23:08:04.840Z,96811.50
2022-09-28T23:10:31.634Z,96801.06
2022-09-28T23:12:58.455Z,96799.16
2022-09-28T23:15:25.796Z,96804.28
2022-09-28T23:17:53.305Z,96799.81
2022-09-28T23:20:21.276Z,96783.91
2022-09-28T23:22:48.693Z,96791.72
2022-09-28T23:25:17.116Z,96787.94
2022-09-28T23:27:48.867Z,96778.16
2022-09-28T23:30:17.355Z,96780.13
2022-09-28T23:32:44.881Z,96788.78
2022-09-28T23:35:11.716Z,96782.94
2022-09-28T23:37:38.686Z,96788.38
2022-09-28T23:40:06.852Z,96799.00
2022-09-28T23:42:34.885Z,96793.84
2022-09-28T23:45:01.793Z,96805.44
2022-09-28T23:47:28.578Z,96797.25
2022-09-28T23:49:55.269Z,96783.22
2022-09-28T23:52:22.054Z,96799.81
2022-09-28T23:54:48.729Z,96800.41
2022-09-28T23:57:15.413Z,96797.59
2022-09-28T23:59:42.112Z,96791.06
